createdAt,value
2023-02-14T00:01:34.497Z,-27
2023-02-14T00:03:35.800Z,-27.2
2023-02-14T00:05:37.589Z,-27.1
2023-02-14T00:11:42.265Z,-27
2023-02-14T00:13:43.446Z,-26.9
2023-02-14T00:15:45.473Z,-27.1
2023-02-14T00:17:47.356Z,-26.8
2023-02-14T00:19:48.508Z,-27
2023-02-14T00:21:49.948Z,-27.1
2023-02-14T00:23:51.304Z,-27.1
2023-02-14T00:25:53.215Z,-26.9
2023-02-14T00:27:55.027Z,-27.1
2023-02-14T00:31:57.351Z,-27.2
2023-02-14T00:33:59.066Z,-27.1
2023-02-14T00:36:00.951Z,-27.2
2023-02-14T00:38:02.915Z,-27
2023-02-14T00:42:05.789Z,-26.9
2023-02-14T00:44:07.368Z,-27.1
2023-02-14T00:46:08.685Z,-26.9
2023-02-14T00:48:10.310Z,-27.1
2023-02-14T00:52:13.698Z,-27.2
2023-02-14T00:54:14.944Z,-27.1
2023-02-14T00:56:16.551Z,-28
2023-02-14T00:58:18.412Z,-28.2
2023-02-14T01:00:19.948Z,-27.9
2023-02-14T01:02:21.286Z,-28.1
2023-02-14T01:04:22.335Z,-28.1
2023-02-14T01:08:25.519Z,-27.9
2023-02-14T01:10:26.653Z,-27.9
2023-02-14T01:12:27.971Z,-27.8
2023-02-14T01:14:29.754Z,-27.8
2023-02-14T01:20:33.765Z,-28
2023-02-14T01:22:35.607Z,-28
2023-02-14T01:24:37.210Z,-27.9
2023-02-14T01:26:38.552Z,-28.2
2023-02-14T01:28:40.311Z,-27.9
2023-02-14T01:30:41.723Z,-27.9
2023-02-14T01:34:45.327Z,-27.9
2023-02-14T01:36:46.459Z,-27.9
2023-02-14T01:38:47.791Z,-27
2023-02-14T01:40:49.129Z,-27.2
2023-02-14T01:43:34.295Z,-27.3
2023-02-14T01:45:36.165Z,-27.2
2023-02-14T01:47:37.484Z,-27.2
2023-02-14T01:49:39.300Z,-26.9
2023-02-14T01:51:41.094Z,-27
2023-02-14T01:57:46.357Z,-27
2023-02-14T01:59:48.178Z,-26.9
2023-02-14T02:01:49.669Z,-26.8
2023-02-14T02:03:50.763Z,-27
2023-02-14T02:05:52.137Z,-27.3
2023-02-14T02:07:53.809Z,-27
2023-02-14T02:11:56.051Z,-27.3
2023-02-14T02:13:57.665Z,-27
2023-02-14T02:15:58.994Z,-26.9
2023-02-14T02:18:00.385Z,-27.1
2023-02-14T02:20:02.206Z,-27
2023-02-14T02:22:03.665Z,-27.1
2023-02-14T02:24:04.737Z,-27.1
2023-02-14T02:26:06.234Z,-27.1
2023-02-14T02:28:08.279Z,-27.1
2023-02-14T02:30:10.227Z,-27.1
2023-02-14T02:32:11.923Z,-27.1
2023-02-14T02:34:13.234Z,-26.8
2023-02-14T02:36:15.141Z,-26.9
2023-02-14T02:40:18.483Z,-27.3
2023-02-14T02:44:22.043Z,-27.2
2023-02-14T02:46:23.320Z,-27
2023-02-14T02:48:24.861Z,-27.1
2023-02-14T02:50:26.737Z,-27.2
2023-02-14T02:54:29.188Z,-27
2023-02-14T02:56:31.111Z,-27.1
2023-02-14T02:58:32.605Z,-27.1
2023-02-14T03:00:34.385Z,-27.1
2023-02-14T03:02:35.690Z,-27
2023-02-14T03:04:36.951Z,-27.3
2023-02-14T03:06:38.767Z,-27.1
2023-02-14T03:08:40.674Z,-27
2023-02-14T03:10:42.427Z,-27.1
2023-02-14T03:12:44.436Z,-26.9
2023-02-14T03:14:45.797Z,-27
2023-02-14T03:16:47.102Z,-26.9
2023-02-14T03:18:48.312Z,-27.1
2023-02-14T03:20:49.519Z,-27
2023-02-14T03:22:51.321Z,-27.4
2023-02-14T03:26:54.716Z,-27.3
2023-02-14T03:28:56.100Z,-27
2023-02-14T03:30:57.501Z,-26.9
2023-02-14T03:32:58.848Z,-27.3
2023-02-14T03:39:03.986Z,-26.9
2023-02-14T03:41:05.132Z,-27.1
2023-02-14T03:43:06.702Z,-27.3
2023-02-14T03:45:08.420Z,-26.9
2023-02-14T03:47:10.355Z,-26.9
2023-02-14T03:49:11.715Z,-27.1
2023-02-14T03:51:13.684Z,-27.2
2023-02-14T03:53:14.758Z,-27
2023-02-14T03:55:16.442Z,-27.2
2023-02-14T03:57:18.030Z,-27.2
2023-02-14T03:59:19.203Z,-27.1
2023-02-14T04:01:20.827Z,-27.2
2023-02-14T04:03:22.059Z,-27.1
2023-02-14T04:05:23.630Z,-27.1
2023-02-14T04:07:25.055Z,-26.9
2023-02-14T04:09:26.841Z,-26.9
2023-02-14T04:11:28.685Z,-26.8
2023-02-14T04:13:29.905Z,-27.1
2023-02-14T04:15:31.179Z,-27.1
2023-02-14T04:17:32.561Z,-26.9
2023-02-14T04:21:35.558Z,-27
2023-02-14T04:23:36.984Z,-27.1
2023-02-14T04:25:38.827Z,-27.1
2023-02-14T04:27:39.872Z,-27.1
2023-02-14T04:29:41.700Z,-27
2023-02-14T04:31:43.333Z,-27
2023-02-14T04:35:46.154Z,-27.3
2023-02-14T04:37:47.499Z,-26.9
2023-02-14T04:39:49.365Z,-27.3
2023-02-14T04:41:51.396Z,-27.2
2023-02-14T04:45:54.639Z,-27.3
2023-02-14T04:47:56.281Z,-27.1
2023-02-14T04:49:57.547Z,-26.9
2023-02-14T04:51:58.831Z,-26.8
2023-02-14T04:54:00.391Z,-27.1
2023-02-14T04:56:02.276Z,-27
2023-02-14T04:58:04.134Z,-26.9
2023-02-14T05:00:05.688Z,-27
2023-02-14T05:02:07.248Z,-27.1
2023-02-14T05:04:09.135Z,-27.2
2023-02-14T05:06:10.445Z,-27.2
2023-02-14T05:08:12.049Z,-27
2023-02-14T05:10:13.104Z,-27.1
2023-02-14T05:12:14.317Z,-27.2
2023-02-14T05:14:15.780Z,-27
2023-02-14T05:20:20.243Z,-26.7
2023-02-14T05:22:21.545Z,-27.1
2023-02-14T05:24:22.827Z,-27.1
2023-02-14T05:26:24.747Z,-27
2023-02-14T05:28:26.042Z,-27
2023-02-14T05:30:27.624Z,-27.1
2023-02-14T05:32:28.600Z,-27
2023-02-14T05:34:30.133Z,-27
2023-02-14T05:36:31.320Z,-27.2
2023-02-14T05:40:34.195Z,-27.1
2023-02-14T05:42:35.983Z,-27.3
2023-02-14T05:44:37.625Z,-27.2
2023-02-14T05:46:38.976Z,-27
2023-02-14T05:50:41.833Z,-26.9
2023-02-14T05:52:43.346Z,-27
2023-02-14T05:54:45.150Z,-27
2023-02-14T05:56:47.008Z,-27
2023-02-14T06:00:50.024Z,-26.9
2023-02-14T06:02:51.314Z,-26.9
2023-02-14T06:04:53.032Z,-27
2023-02-14T06:06:54.877Z,-27.1
2023-02-14T06:08:56.056Z,-26.9
2023-02-14T06:10:57.711Z,-26.9
2023-02-14T06:12:59.209Z,-27
2023-02-14T06:17:02.268Z,-26.9
2023-02-14T06:19:03.511Z,-27.1
2023-02-14T06:21:04.682Z,-26.9
2023-02-14T06:23:05.963Z,-27.1
2023-02-14T06:25:07.061Z,-27
2023-02-14T06:27:08.796Z,-27.2
2023-02-14T06:29:10.626Z,-26.9
2023-02-14T06:33:13.057Z,-27.1
2023-02-14T06:35:15.087Z,-26.9
2023-02-14T06:37:16.161Z,-27.1
2023-02-14T06:39:18.076Z,-27.1
2023-02-14T06:41:19.871Z,-27.1
2023-02-14T06:43:21.494Z,-26.9
2023-02-14T06:45:23.333Z,-27.2
2023-02-14T06:47:25.108Z,-27.1
2023-02-14T06:49:26.468Z,-27.3
2023-02-14T06:51:28.371Z,-27
2023-02-14T06:53:29.959Z,-27.1
2023-02-14T06:55:31.660Z,-27.1
2023-02-14T06:57:32.809Z,-27.1
2023-02-14T06:59:34.266Z,-27
2023-02-14T07:01:35.704Z,-27.1
2023-02-14T07:03:37.248Z,-27.2
2023-02-14T07:05:38.859Z,-26.9
2023-02-14T07:07:40.303Z,-27
2023-02-14T07:11:43.298Z,-26.9
2023-02-14T07:13:45.024Z,-27.1
2023-02-14T07:15:47.034Z,-26.8
2023-02-14T07:17:48.907Z,-26.9
2023-02-14T07:19:50.373Z,-27.2
2023-02-14T07:21:52.406Z,-27.2
2023-02-14T07:23:54.143Z,-27
2023-02-14T07:25:55.527Z,-26.9
2023-02-14T07:27:56.698Z,-26.9
2023-02-14T07:29:58.269Z,-26.9
2023-02-14T07:31:59.524Z,-27.2
2023-02-14T07:34:01.088Z,-27.1
2023-02-14T07:36:02.480Z,-26.9
2023-02-14T07:38:03.586Z,-27.2
2023-02-14T07:40:07.380Z,-27.2
2023-02-14T07:42:06.830Z,-27
2023-02-14T07:44:08.575Z,-26.9
2023-02-14T07:46:09.761Z,-27.2
2023-02-14T07:48:11.013Z,-26.9
2023-02-14T07:50:12.446Z,-27.2
2023-02-14T07:52:13.494Z,-27.1
2023-02-14T07:54:14.915Z,-27.3
2023-02-14T07:58:18.071Z,-26.9
2023-02-14T08:00:19.328Z,-27.2
2023-02-14T08:02:20.455Z,-27
2023-02-14T08:04:22.438Z,-27.1
2023-02-14T08:10:26.591Z,-27.3
2023-02-14T08:12:28.066Z,-27.3
2023-02-14T08:14:29.362Z,-27.1
2023-02-14T08:16:31.288Z,-27
2023-02-14T08:18:33.157Z,-27.2
2023-02-14T08:20:34.831Z,-27.2
2023-02-14T08:22:35.970Z,-27.1
2023-02-14T08:24:37.796Z,-27.2
2023-02-14T08:26:39.037Z,-27.2
2023-02-14T08:28:40.607Z,-26.9
2023-02-14T08:31:34.957Z,-27
2023-02-14T08:33:27.977Z,-27
2023-02-14T08:35:29.721Z,-26.9
2023-02-14T08:37:31.445Z,-27
2023-02-14T08:39:33.019Z,-27.4
2023-02-14T08:41:34.393Z,-25.5
2023-02-14T08:47:38.303Z,-27.1
2023-02-14T08:49:40.226Z,-25.5
2023-02-14T08:51:41.281Z,-25.1
2023-02-14T08:53:42.729Z,-25.2
2023-02-14T08:55:44.629Z,-23.1
2023-02-14T08:57:46.338Z,-23.4
2023-02-14T08:59:47.888Z,-22.8
2023-02-14T09:01:49.321Z,-24.5
2023-02-14T09:03:51.022Z,-23.4
2023-02-14T09:05:52.053Z,-22.1
2023-02-14T09:07:53.425Z,-21.8
2023-02-14T09:09:54.662Z,-20.7
2023-02-14T09:11:56.378Z,-20.2
2023-02-14T09:13:58.259Z,-20
2023-02-14T09:15:59.646Z,-19.4
2023-02-14T09:18:00.894Z,-20.4
2023-02-14T09:20:02.134Z,-19.4
2023-02-14T09:22:03.638Z,-19.5
2023-02-14T09:24:05.328Z,-20
2023-02-14T09:26:07.315Z,-18.79
2023-02-14T09:30:10.873Z,-17.1
2023-02-14T09:32:12.159Z,-21.3
2023-02-14T09:34:13.240Z,-17.79
2023-02-14T09:36:14.425Z,-18
2023-02-14T09:38:15.910Z,-15.5
2023-02-14T09:40:17.658Z,-15
2023-02-14T09:44:21.141Z,-17
2023-02-14T09:46:22.851Z,-16.29
2023-02-14T09:48:23.992Z,-16.79
2023-02-14T09:50:25.081Z,-11.1
2023-02-14T09:52:27.049Z,-15.2
2023-02-14T09:54:28.747Z,-10.5
2023-02-14T09:56:31.048Z,-9.1
2023-02-14T09:58:41.208Z,-12.2
2023-02-14T10:00:33.308Z,-3.9
2023-02-14T10:02:34.919Z,-1.3
2023-02-14T10:06:37.626Z,-2.6
2023-02-14T10:08:39.168Z,-5.2
2023-02-14T10:10:40.268Z,-5.7
2023-02-14T10:12:41.285Z,-12.4
2023-02-14T10:16:44.229Z,-12.4
2023-02-14T10:18:45.242Z,-4.5
2023-02-14T10:20:46.718Z,-4.6
2023-02-14T10:22:48.603Z,-3.8
2023-02-14T10:26:51.721Z,3.4
2023-02-14T10:28:52.856Z,5.6
2023-02-14T10:30:54.993Z,6.1
2023-02-14T10:32:56.097Z,9.3
2023-02-14T10:34:57.970Z,8.8
2023-02-14T10:36:59.566Z,10.3
2023-02-14T10:39:00.772Z,12.7
2023-02-14T10:43:04.073Z,8.89
2023-02-14T10:45:05.784Z,6.7
2023-02-14T10:47:07.093Z,4.8
2023-02-14T10:49:08.611Z,5.3
2023-02-14T10:53:12.025Z,6.9
2023-02-14T10:55:17.701Z,8.39
2023-02-14T10:59:16.082Z,9.8
2023-02-14T11:01:17.139Z,12.2
2023-02-14T11:03:18.314Z,12
2023-02-14T11:05:20.228Z,9.89
2023-02-14T11:07:21.194Z,8.8
2023-02-14T11:09:22.736Z,10
2023-02-14T11:11:23.870Z,12.3
2023-02-14T11:13:25.397Z,12.3
2023-02-14T11:15:26.482Z,12.1
2023-02-14T11:17:28.399Z,13.5
2023-02-14T11:19:29.772Z,13.3
2023-02-14T11:21:31.084Z,15.1
2023-02-14T11:23:32.358Z,-10.3
2023-02-14T11:25:33.912Z,11.9
2023-02-14T11:27:37.771Z,11.7
2023-02-14T11:29:36.484Z,9.6
2023-02-14T11:31:37.607Z,10.9
2023-02-14T11:33:38.469Z,9
2023-02-14T11:35:39.481Z,9.2
2023-02-14T11:37:41.014Z,11.1
2023-02-14T11:39:42.505Z,13.7
2023-02-14T11:41:43.741Z,17.6
2023-02-14T11:43:45.482Z,19
2023-02-14T11:45:46.817Z,19.5
2023-02-14T11:47:48.137Z,18.4
2023-02-14T11:49:49.617Z,13.8
2023-02-14T11:53:52.503Z,13.4
2023-02-14T11:55:54.270Z,12.6
2023-02-14T11:57:55.961Z,13
2023-02-14T11:59:57.345Z,14.9
2023-02-14T12:01:58.549Z,16.4
2023-02-14T12:04:00.540Z,16.79
2023-02-14T12:06:01.539Z,18.7
2023-02-14T12:08:03.238Z,25
2023-02-14T12:10:04.504Z,25.6
2023-02-14T12:12:05.614Z,19.9
2023-02-14T12:14:06.657Z,14.8
2023-02-14T12:16:08.102Z,11.7
2023-02-14T12:18:10.001Z,11.2
2023-02-14T12:20:11.191Z,11.2
2023-02-14T12:24:13.781Z,15.4
2023-02-14T12:26:15.626Z,17.5
2023-02-14T12:30:19.150Z,23.4
2023-02-14T12:34:30.994Z,24
2023-02-14T12:36:23.645Z,19.4
2023-02-14T12:40:25.943Z,13.5
2023-02-14T12:42:27.796Z,14.1
2023-02-14T12:44:28.756Z,15.5
2023-02-14T12:46:30.300Z,17.5
2023-02-14T12:48:32.000Z,22.3
2023-02-14T12:50:33.866Z,23.6
2023-02-14T12:52:34.843Z,27.4
2023-02-14T12:54:36.292Z,28.6
2023-02-14T12:56:37.988Z,26.5
2023-02-14T12:58:39.226Z,29
2023-02-14T13:00:41.017Z,30.4
2023-02-14T13:02:42.273Z,25.7
2023-02-14T13:04:44.131Z,23.2
2023-02-14T13:06:45.162Z,19.29
2023-02-14T13:08:46.498Z,21
2023-02-14T13:10:48.054Z,21.8
2023-02-14T13:12:49.263Z,19.29
2023-02-14T13:18:53.275Z,24.2
2023-02-14T13:20:55.124Z,31
2023-02-14T13:22:56.138Z,32.7
2023-02-14T13:24:57.454Z,38.9
2023-02-14T13:27:06.369Z,34.4
2023-02-14T13:29:00.214Z,29.4
2023-02-14T13:31:02.521Z,31.8
2023-02-14T13:33:03.972Z,38.09
2023-02-14T13:35:05.843Z,31.9
2023-02-14T13:37:06.929Z,30.4
2023-02-14T13:39:08.806Z,25.8
2023-02-14T13:43:11.762Z,20.6
2023-02-14T13:45:14.193Z,17.5
2023-02-14T13:47:14.434Z,15.1
2023-02-14T13:49:16.213Z,21.5
2023-02-14T13:51:17.394Z,19.9
2023-02-14T13:53:18.473Z,17.7
2023-02-14T13:55:19.884Z,19.6
2023-02-14T13:57:21.693Z,26.5
2023-02-14T13:59:22.718Z,29.7
2023-02-14T14:01:23.847Z,26.8
2023-02-14T14:05:27.331Z,19.1
2023-02-14T14:07:28.315Z,25.1
2023-02-14T14:09:29.683Z,52.9
2023-02-14T14:11:30.852Z,50.6
2023-02-14T14:17:34.960Z,46.1
2023-02-14T14:19:36.651Z,45.7
2023-02-14T14:21:37.680Z,43.8
2023-02-14T14:23:38.915Z,42.1
2023-02-14T14:25:40.374Z,40.5
2023-02-14T14:27:41.532Z,38.2
2023-02-14T14:29:42.896Z,35.7
2023-02-14T14:31:44.722Z,34.8
2023-02-14T14:33:46.386Z,33.59
2023-02-14T14:35:47.408Z,31.6
2023-02-14T14:37:48.803Z,29.3
2023-02-14T14:39:51.344Z,27.4
2023-02-14T14:41:52.379Z,24.1
2023-02-14T14:43:53.666Z,22.9
2023-02-14T14:45:55.384Z,22.4
2023-02-14T14:47:56.778Z,17.2
2023-02-14T14:49:58.611Z,20.2
2023-02-14T14:51:59.808Z,13
2023-02-14T14:54:01.576Z,17.5
2023-02-14T14:56:03.392Z,18
2023-02-14T14:58:04.516Z,15.8
2023-02-14T15:00:06.324Z,15
2023-02-14T15:02:07.495Z,15.3
2023-02-14T15:04:11.172Z,14.3
2023-02-14T15:06:10.555Z,13.3
2023-02-14T15:08:11.917Z,14.3
2023-02-14T15:10:13.799Z,-8.5
2023-02-14T15:15:00.195Z,-15.5
2023-02-14T15:17:02.010Z,-27.1
2023-02-14T15:19:02.984Z,-12.8
2023-02-14T15:21:04.678Z,-13.7
2023-02-14T15:23:06.079Z,-15.6
2023-02-14T15:25:07.460Z,-25.3
2023-02-14T15:27:08.644Z,-16.1
2023-02-14T15:31:11.881Z,-24.9
2023-02-14T15:35:15.248Z,-27.1
2023-02-14T15:37:16.305Z,-26.8
2023-02-14T15:41:19.798Z,-27.1
2023-02-14T15:43:21.117Z,-27
2023-02-14T15:45:22.104Z,-27
2023-02-14T15:47:23.351Z,-26.8
2023-02-14T15:51:26.454Z,-27.8
2023-02-14T15:53:27.809Z,-27.8
2023-02-14T15:55:28.890Z,-28
2023-02-14T15:57:30.179Z,-27.8
2023-02-14T16:01:33.310Z,-27.9
2023-02-14T16:03:35.053Z,-27.8
2023-02-14T16:05:37.008Z,-28.3
2023-02-14T16:07:38.237Z,-27.7
2023-02-14T16:09:39.451Z,-28
2023-02-14T16:11:40.790Z,-27.9
2023-02-14T16:13:42.506Z,-27.6
2023-02-14T16:15:44.465Z,-28
2023-02-14T16:19:47.992Z,-28
2023-02-14T16:21:49.800Z,-28
2023-02-14T16:23:51.030Z,-27.9
2023-02-14T16:25:52.676Z,-27.6
2023-02-14T16:27:54.316Z,-27.8
2023-02-14T16:29:56.225Z,-27.9
2023-02-14T16:32:14.995Z,-27.7
2023-02-14T16:33:59.892Z,-28
2023-02-14T16:36:01.331Z,-27.9
2023-02-14T16:40:03.416Z,-27.9
2023-02-14T16:42:05.027Z,-27.9
2023-02-14T16:44:06.836Z,-27.8
2023-02-14T16:46:08.328Z,-28.2
2023-02-14T16:50:11.620Z,-27.8
2023-02-14T16:52:13.254Z,-28
2023-02-14T16:56:15.556Z,-27.9
2023-02-14T16:58:17.550Z,-28
2023-02-14T17:00:18.806Z,-28
2023-02-14T17:02:20.397Z,-27.9
2023-02-14T17:08:25.702Z,-27.7
2023-02-14T17:10:27.013Z,-28
2023-02-14T17:12:28.073Z,-28
2023-02-14T17:16:30.689Z,-27.8
2023-02-14T17:18:31.789Z,-27.9
2023-02-14T17:20:33.015Z,-28
2023-02-14T17:22:34.810Z,-27.9
2023-02-14T17:24:35.830Z,-27.6
2023-02-14T17:26:37.507Z,-27.7
2023-02-14T17:28:38.806Z,-28
2023-02-14T17:30:40.577Z,-27.8
2023-02-14T17:34:43.043Z,-27.8
2023-02-14T17:36:44.855Z,-27.9
2023-02-14T17:38:46.304Z,-28
2023-02-14T17:40:47.344Z,-28
2023-02-14T17:42:49.217Z,-27.8
2023-02-14T17:44:50.890Z,-28
2023-02-14T17:46:51.999Z,-28
2023-02-14T17:48:53.866Z,-27.7
2023-02-14T17:51:03.338Z,-27.8
2023-02-14T17:52:56.362Z,-27.9
2023-02-14T17:54:57.787Z,-28
2023-02-14T17:56:59.618Z,-28
2023-02-14T17:59:01.285Z,-27.9
2023-02-14T18:01:03.007Z,-27.9
2023-02-14T18:03:04.961Z,-28
2023-02-14T18:05:06.164Z,-27.9
2023-02-14T18:07:07.867Z,-28
2023-02-14T18:09:09.310Z,-28
2023-02-14T18:11:10.695Z,-27.8
2023-02-14T18:13:11.546Z,-27.6
2023-02-14T18:15:12.803Z,-27.9
2023-02-14T18:17:14.112Z,-27.6
2023-02-14T18:21:16.745Z,-27.7
2023-02-14T18:23:18.370Z,-27.8
2023-02-14T18:25:20.158Z,-27.9
2023-02-14T18:27:21.852Z,-28
2023-02-14T18:33:26.357Z,-27.9
2023-02-14T18:35:28.025Z,-27.8
2023-02-14T18:37:29.937Z,-27.9
2023-02-14T18:39:31.468Z,-27.9
2023-02-14T18:41:33.388Z,-27.7
2023-02-14T18:43:34.832Z,-28
2023-02-14T18:45:36.582Z,-27.5
2023-02-14T18:47:38.273Z,-27.9
2023-02-14T18:49:39.800Z,-27.9
2023-02-14T18:51:41.752Z,-27.7
2023-02-14T18:53:43.687Z,-27.9
2023-02-14T18:55:45.469Z,-27.6
2023-02-14T18:57:46.928Z,-27.7
2023-02-14T18:59:48.089Z,-27.9
2023-02-14T19:01:49.584Z,-27.7
2023-02-14T19:03:50.784Z,-27.8
2023-02-14T19:05:52.045Z,-27.8
2023-02-14T19:11:56.426Z,-27.9
2023-02-14T19:13:58.061Z,-27.9
2023-02-14T19:15:59.574Z,-27.3
2023-02-14T19:20:02.578Z,-27
2023-02-14T19:22:03.626Z,-27
2023-02-14T19:24:04.842Z,-27
2023-02-14T19:26:06.606Z,-27
2023-02-14T19:30:09.713Z,-27
2023-02-14T19:32:11.146Z,-27
2023-02-14T19:34:13.008Z,-26.9
2023-02-14T19:36:14.641Z,-27.1
2023-02-14T19:38:15.888Z,-26.9
2023-02-14T19:40:17.112Z,-27
2023-02-14T19:42:18.193Z,-26.9
2023-02-14T19:44:20.052Z,-27
2023-02-14T19:46:21.881Z,-26.9
2023-02-14T19:48:22.900Z,-26.9
2023-02-14T19:52:26.735Z,-26.9
2023-02-14T19:54:27.475Z,-27.2
2023-02-14T19:56:28.593Z,-27.1
2023-02-14T19:58:30.365Z,-27.1
2023-02-14T20:00:31.828Z,-26.9
2023-02-14T20:02:33.378Z,-27
2023-02-14T20:04:34.982Z,-27.3
2023-02-14T20:06:36.094Z,-27.2
2023-02-14T20:08:37.399Z,-27
2023-02-14T20:14:50.676Z,-27
2023-02-14T20:16:43.180Z,-26.9
2023-02-14T20:18:44.852Z,-27.1
2023-02-14T20:20:46.813Z,-26.9
2023-02-14T20:22:48.428Z,-27.1
2023-02-14T20:24:49.920Z,-27
2023-02-14T20:28:53.381Z,-27.1
2023-02-14T20:30:55.428Z,-26.9
2023-02-14T20:34:58.887Z,-27.1
2023-02-14T20:37:00.186Z,-27
2023-02-14T20:39:01.445Z,-26.9
2023-02-14T20:41:02.958Z,-27.1
2023-02-14T20:45:06.091Z,-26.9
2023-02-14T20:47:07.203Z,-27
2023-02-14T20:49:09.510Z,-27
2023-02-14T20:51:09.984Z,-27
2023-02-14T20:55:13.167Z,-27
2023-02-14T20:57:14.587Z,-27.1
2023-02-14T20:59:16.023Z,-27
2023-02-14T21:01:17.647Z,-27.1
2023-02-14T21:03:19.146Z,-27.1
2023-02-14T21:05:20.692Z,-27.1
2023-02-14T21:07:21.866Z,-26.9
2023-02-14T21:11:24.993Z,-27.1
2023-02-14T21:13:26.402Z,-26.9
2023-02-14T21:15:28.145Z,-26.6
2023-02-14T21:17:29.862Z,-27.1
2023-02-14T21:23:34.270Z,-26.9
2023-02-14T21:25:35.993Z,-26.9
2023-02-14T21:27:37.405Z,-26.9
2023-02-14T21:29:38.774Z,-27
2023-02-14T21:31:40.763Z,-26.9
2023-02-14T21:33:42.372Z,-27.2
2023-02-14T21:35:43.801Z,-26.9
2023-02-14T21:37:45.604Z,-27.1
2023-02-14T21:39:47.245Z,-26.8
2023-02-14T21:41:48.984Z,-27
2023-02-14T21:43:49.994Z,-27
2023-02-14T21:45:51.628Z,-26.9
2023-02-14T21:47:53.214Z,-26.8
2023-02-14T21:49:54.704Z,-26.9
2023-02-14T21:51:55.841Z,-27
2023-02-14T21:53:57.537Z,-27
2023-02-14T21:55:58.580Z,-26.8
2023-02-14T21:57:59.794Z,-26.9
2023-02-14T22:00:01.382Z,-26.9
2023-02-14T22:00:45.274Z,-27
2023-02-14T22:04:48.366Z,-27.1
2023-02-14T22:06:49.404Z,-27.1
2023-02-14T22:08:50.855Z,-27
2023-02-14T22:10:52.613Z,-26.9
2023-02-14T22:16:56.966Z,-26.9
2023-02-14T22:18:58.752Z,-27.2
2023-02-14T22:21:00.796Z,-27.4
2023-02-14T22:23:02.130Z,-27.1
2023-02-14T22:25:03.538Z,-26.9
2023-02-14T22:27:04.880Z,-26.9
2023-02-14T22:29:06.077Z,-26.9
2023-02-14T22:31:08.089Z,-27
2023-02-14T22:33:09.742Z,-27
2023-02-14T22:35:11.382Z,-26.9
2023-02-14T22:37:12.997Z,-27.2
2023-02-14T22:39:14.909Z,-27.1
2023-02-14T22:41:16.376Z,-27.1
2023-02-14T22:43:17.779Z,-27.2
2023-02-14T22:45:19.747Z,-27
2023-02-14T22:47:21.230Z,-27.2
2023-02-14T22:49:22.983Z,-26.9
2023-02-14T22:51:24.184Z,-27
2023-02-14T22:53:26.075Z,-27
2023-02-14T22:55:27.447Z,-27.2
2023-02-14T22:59:29.942Z,-27
2023-02-14T23:01:31.374Z,-27.1
2023-02-14T23:03:32.839Z,-27.1
2023-02-14T23:05:34.141Z,-26.9
2023-02-14T23:07:35.192Z,-27.3
2023-02-14T23:09:36.259Z,-27.2
2023-02-14T23:15:40.170Z,-26.8
2023-02-14T23:17:41.364Z,-27.1
2023-02-14T23:19:42.574Z,-27
2023-02-14T23:21:43.817Z,-26.9
2023-02-14T23:23:45.777Z,-27.3
2023-02-14T23:25:47.639Z,-27.1
2023-02-14T23:27:49.478Z,-26.8
2023-02-14T23:29:50.790Z,-27.1
2023-02-14T23:31:52.425Z,-26.8
2023-02-14T23:35:55.936Z,-27.2
2023-02-14T23:37:57.287Z,-27.1
2023-02-14T23:39:58.873Z,-27.1
2023-02-14T23:42:00.648Z,-27.1
2023-02-14T23:44:02.310Z,-27.1
2023-02-14T23:46:03.796Z,-26.9
2023-02-14T23:48:04.934Z,-26.9
2023-02-14T23:50:06.369Z,-27
2023-02-14T23:52:07.974Z,-26.9
2023-02-14T23:58:13.164Z,-26.8
